sensor_id;sensor_type;location;lat;lon;timestamp;temperature;humidity
10129;DHT22;5104;50.720;7.044;2023-02-21T00:02:38;8.20;99.90
10129;DHT22;5104;50.720;7.044;2023-02-21T00:05:23;8.20;99.90
10129;DHT22;5104;50.720;7.044;2023-02-21T00:08:07;8.20;99.90
10129;DHT22;5104;50.720;7.044;2023-02-21T00:10:52;8.20;99.90
10129;DHT22;5104;50.720;7.044;2023-02-21T00:13:38;8.10;99.90
10129;DHT22;5104;50.720;7.044;2023-02-21T00:16:22;8.10;99.90
10129;DHT22;5104;50.720;7.044;2023-02-21T00:19:07;8.10;99.90
10129;DHT22;5104;50.720;7.044;2023-02-21T00:21:51;8.10;99.90
10129;DHT22;5104;50.720;7.044;2023-02-21T00:24:36;8.10;99.90
10129;DHT22;5104;50.720;7.044;2023-02-21T00:27:20;8.20;99.90
10129;DHT22;5104;50.720;7.044;2023-02-21T00:30:08;8.20;99.90
10129;DHT22;5104;50.720;7.044;2023-02-21T00:32:52;8.20;99.90
10129;DHT22;5104;50.720;7.044;2023-02-21T00:35:36;8.20;99.90
10129;DHT22;5104;50.720;7.044;2023-02-21T00:38:21;8.10;99.90
10129;DHT22;5104;50.720;7.044;2023-02-21T00:41:05;8.20;99.90
10129;DHT22;5104;50.720;7.044;2023-02-21T00:43:49;8.20;99.90
10129;DHT22;5104;50.720;7.044;2023-02-21T00:46:35;8.20;99.90
10129;DHT22;5104;50.720;7.044;2023-02-21T00:49:19;8.20;99.90
10129;DHT22;5104;50.720;7.044;2023-02-21T00:52:11;8.20;99.90
10129;DHT22;5104;50.720;7.044;2023-02-21T00:54:56;8.20;99.90
10129;DHT22;5104;50.720;7.044;2023-02-21T00:57:40;8.30;99.90
10129;DHT22;5104;50.720;7.044;2023-02-21T01:00:27;8.30;90.40
10129;DHT22;5104;50.720;7.044;2023-02-21T01:03:13;8.30;98.00
10129;DHT22;5104;50.720;7.044;2023-02-21T01:05:57;8.30;1.00
10129;DHT22;5104;50.720;7.044;2023-02-21T01:08:42;8.30;1.00
10129;DHT22;5104;50.720;7.044;2023-02-21T01:11:26;8.30;1.00
10129;DHT22;5104;50.720;7.044;2023-02-21T01:14:10;8.20;12.50
10129;DHT22;5104;50.720;7.044;2023-02-21T01:16:54;8.20;99.90
10129;DHT22;5104;50.720;7.044;2023-02-21T01:19:41;8.20;99.90
10129;DHT22;5104;50.720;7.044;2023-02-21T01:22:25;8.30;99.90
10129;DHT22;5104;50.720;7.044;2023-02-21T01:25:10;8.20;99.90
10129;DHT22;5104;50.720;7.044;2023-02-21T01:27:54;8.20;99.90
10129;DHT22;5104;50.720;7.044;2023-02-21T01:30:38;8.30;99.90
10129;DHT22;5104;50.720;7.044;2023-02-21T01:33:22;8.30;20.30
10129;DHT22;5104;50.720;7.044;2023-02-21T01:36:09;8.30;1.00
10129;DHT22;5104;50.720;7.044;2023-02-21T01:38:54;8.40;1.00
10129;DHT22;5104;50.720;7.044;2023-02-21T01:41:38;8.30;1.00
10129;DHT22;5104;50.720;7.044;2023-02-21T01:44:34;8.30;1.00
10129;DHT22;5104;50.720;7.044;2023-02-21T01:47:19;8.40;1.00
10129;DHT22;5104;50.720;7.044;2023-02-21T01:50:08;8.40;1.00
10129;DHT22;5104;50.720;7.044;2023-02-21T01:52:55;8.40;1.00
10129;DHT22;5104;50.720;7.044;2023-02-21T01:55:41;8.40;1.00
10129;DHT22;5104;50.720;7.044;2023-02-21T01:58:26;8.40;1.00
10129;DHT22;5104;50.720;7.044;2023-02-21T02:01:22;8.50;99.90
10129;DHT22;5104;50.720;7.044;2023-02-21T02:04:08;8.40;1.00
10129;DHT22;5104;50.720;7.044;2023-02-21T02:06:53;8.40;1.00
10129;DHT22;5104;50.720;7.044;2023-02-21T02:09:38;8.40;1.00
10129;DHT22;5104;50.720;7.044;2023-02-21T02:15:23;8.30;1.00
10129;DHT22;5104;50.720;7.044;2023-02-21T02:18:10;8.30;1.00
10129;DHT22;5104;50.720;7.044;2023-02-21T02:21:19;8.30;99.90
10129;DHT22;5104;50.720;7.044;2023-02-21T02:27:29;8.30;99.90
10129;DHT22;5104;50.720;7.044;2023-02-21T02:33:36;8.30;99.90
10129;DHT22;5104;50.720;7.044;2023-02-21T02:36:13;8.30;99.90
10129;DHT22;5104;50.720;7.044;2023-02-21T02:38:46;8.20;1.00
10129;DHT22;5104;50.720;7.044;2023-02-21T02:41:22;8.20;99.90
10129;DHT22;5104;50.720;7.044;2023-02-21T02:43:54;8.20;1.00
10129;DHT22;5104;50.720;7.044;2023-02-21T02:46:26;8.20;1.00
10129;DHT22;5104;50.720;7.044;2023-02-21T02:48:57;8.20;1.00
10129;DHT22;5104;50.720;7.044;2023-02-21T02:51:28;8.20;1.00
10129;DHT22;5104;50.720;7.044;2023-02-21T02:53:55;8.20;1.00
10129;DHT22;5104;50.720;7.044;2023-02-21T02:56:23;8.20;1.00
10129;DHT22;5104;50.720;7.044;2023-02-21T02:59:03;8.30;1.00
10129;DHT22;5104;50.720;7.044;2023-02-21T03:04:47;8.20;1.00
10129;DHT22;5104;50.720;7.044;2023-02-21T03:07:26;8.20;1.00
10129;DHT22;5104;50.720;7.044;2023-02-21T03:10:06;8.30;1.00
10129;DHT22;5104;50.720;7.044;2023-02-21T03:12:43;8.30;1.00
10129;DHT22;5104;50.720;7.044;2023-02-21T03:15:17;8.30;99.90
10129;DHT22;5104;50.720;7.044;2023-02-21T03:17:50;8.30;99.90
10129;DHT22;5104;50.720;7.044;2023-02-21T03:20:20;8.40;99.90
10129;DHT22;5104;50.720;7.044;2023-02-21T03:22:50;8.30;99.90
10129;DHT22;5104;50.720;7.044;2023-02-21T03:25:20;8.30;99.90
10129;DHT22;5104;50.720;7.044;2023-02-21T03:27:50;8.30;99.90
10129;DHT22;5104;50.720;7.044;2023-02-21T03:30:20;8.30;99.90
10129;DHT22;5104;50.720;7.044;2023-02-21T03:32:49;8.30;99.90
10129;DHT22;5104;50.720;7.044;2023-02-21T03:35:18;8.30;1.00
10129;DHT22;5104;50.720;7.044;2023-02-21T03:37:49;8.40;1.00
10129;DHT22;5104;50.720;7.044;2023-02-21T03:40:22;8.30;1.00
10129;DHT22;5104;50.720;7.044;2023-02-21T03:42:49;8.40;1.00
10129;DHT22;5104;50.720;7.044;2023-02-21T03:45:16;8.40;99.90
10129;DHT22;5104;50.720;7.044;2023-02-21T03:47:43;8.40;1.00
10129;DHT22;5104;50.720;7.044;2023-02-21T03:50:10;8.40;1.00
10129;DHT22;5104;50.720;7.044;2023-02-21T03:52:37;8.40;99.90
10129;DHT22;5104;50.720;7.044;2023-02-21T03:55:05;8.40;1.00
10129;DHT22;5104;50.720;7.044;2023-02-21T03:57:33;8.40;99.90
10129;DHT22;5104;50.720;7.044;2023-02-21T04:00:03;8.40;1.00
10129;DHT22;5104;50.720;7.044;2023-02-21T04:02:30;8.40;1.00
10129;DHT22;5104;50.720;7.044;2023-02-21T04:04:57;8.40;1.00
10129;DHT22;5104;50.720;7.044;2023-02-21T04:07:25;8.40;99.90
10129;DHT22;5104;50.720;7.044;2023-02-21T04:09:52;8.40;99.90
10129;DHT22;5104;50.720;7.044;2023-02-21T04:12:20;8.40;1.00
10129;DHT22;5104;50.720;7.044;2023-02-21T04:14:48;8.40;99.90
10129;DHT22;5104;50.720;7.044;2023-02-21T04:17:16;8.40;1.00
10129;DHT22;5104;50.720;7.044;2023-02-21T04:19:43;8.40;1.00
10129;DHT22;5104;50.720;7.044;2023-02-21T04:22:10;8.40;99.90
10129;DHT22;5104;50.720;7.044;2023-02-21T04:24:37;8.40;1.00
10129;DHT22;5104;50.720;7.044;2023-02-21T04:27:04;8.40;99.90
10129;DHT22;5104;50.720;7.044;2023-02-21T04:29:31;8.40;1.00
10129;DHT22;5104;50.720;7.044;2023-02-21T04:31:59;8.30;99.90
10129;DHT22;5104;50.720;7.044;2023-02-21T04:34:27;8.30;1.00
10129;DHT22;5104;50.720;7.044;2023-02-21T04:36:57;8.20;1.00
10129;DHT22;5104;50.720;7.044;2023-02-21T04:39:23;8.20;99.90
10129;DHT22;5104;50.720;7.044;2023-02-21T04:41:51;8.10;1.00
10129;DHT22;5104;50.720;7.044;2023-02-21T04:44:17;8.10;1.00
10129;DHT22;5104;50.720;7.044;2023-02-21T04:46:45;8.10;99.90
10129;DHT22;5104;50.720;7.044;2023-02-21T04:49:13;8.10;99.90
10129;DHT22;5104;50.720;7.044;2023-02-21T04:51:40;8.10;99.90
10129;DHT22;5104;50.720;7.044;2023-02-21T04:54:07;8.00;99.90
10129;DHT22;5104;50.720;7.044;2023-02-21T04:56:34;8.00;1.00
10129;DHT22;5104;50.720;7.044;2023-02-21T04:59:02;8.00;1.00
10129;DHT22;5104;50.720;7.044;2023-02-21T05:01:30;7.90;1.00
10129;DHT22;5104;50.720;7.044;2023-02-21T05:03:57;7.90;1.00
10129;DHT22;5104;50.720;7.044;2023-02-21T05:06:27;7.80;1.00
10129;DHT22;5104;50.720;7.044;2023-02-21T05:08:54;7.80;1.00
10129;DHT22;5104;50.720;7.044;2023-02-21T05:11:22;7.70;1.00
10129;DHT22;5104;50.720;7.044;2023-02-21T05:13:49;7.70;1.00
10129;DHT22;5104;50.720;7.044;2023-02-21T05:16:17;7.70;1.00
10129;DHT22;5104;50.720;7.044;2023-02-21T05:18:46;7.60;61.40
10129;DHT22;5104;50.720;7.044;2023-02-21T05:21:14;7.70;99.90
10129;DHT22;5104;50.720;7.044;2023-02-21T05:23:42;7.70;92.10
10129;DHT22;5104;50.720;7.044;2023-02-21T05:26:21;7.60;97.40
10129;DHT22;5104;50.720;7.044;2023-02-21T05:28:48;7.60;99.90
10129;DHT22;5104;50.720;7.044;2023-02-21T05:31:15;7.60;99.90
10129;DHT22;5104;50.720;7.044;2023-02-21T05:33:42;7.50;99.90
10129;DHT22;5104;50.720;7.044;2023-02-21T05:36:09;7.40;99.90
10129;DHT22;5104;50.720;7.044;2023-02-21T05:38:45;7.30;99.90
10129;DHT22;5104;50.720;7.044;2023-02-21T05:41:13;7.20;99.90
10129;DHT22;5104;50.720;7.044;2023-02-21T05:43:42;7.10;99.90
10129;DHT22;5104;50.720;7.044;2023-02-21T05:46:17;7.00;99.90
10129;DHT22;5104;50.720;7.044;2023-02-21T05:48:44;6.90;99.90
10129;DHT22;5104;50.720;7.044;2023-02-21T05:51:11;6.80;99.90
10129;DHT22;5104;50.720;7.044;2023-02-21T05:53:38;6.70;99.90
10129;DHT22;5104;50.720;7.044;2023-02-21T05:56:07;6.70;99.90
10129;DHT22;5104;50.720;7.044;2023-02-21T05:58:33;6.60;99.90
10129;DHT22;5104;50.720;7.044;2023-02-21T06:01:00;6.50;99.90
10129;DHT22;5104;50.720;7.044;2023-02-21T06:03:27;6.50;99.90
10129;DHT22;5104;50.720;7.044;2023-02-21T06:05:54;6.40;99.90
10129;DHT22;5104;50.720;7.044;2023-02-21T06:08:21;6.40;99.90
10129;DHT22;5104;50.720;7.044;2023-02-21T06:10:48;6.30;99.90
10129;DHT22;5104;50.720;7.044;2023-02-21T06:13:16;6.30;99.90
10129;DHT22;5104;50.720;7.044;2023-02-21T06:15:43;6.30;99.90
10129;DHT22;5104;50.720;7.044;2023-02-21T06:18:11;6.30;99.90
10129;DHT22;5104;50.720;7.044;2023-02-21T06:20:38;6.20;99.90
10129;DHT22;5104;50.720;7.044;2023-02-21T06:23:05;6.20;99.90
10129;DHT22;5104;50.720;7.044;2023-02-21T06:25:32;6.10;99.90
10129;DHT22;5104;50.720;7.044;2023-02-21T06:27:59;6.10;99.90
10129;DHT22;5104;50.720;7.044;2023-02-21T06:30:28;6.10;99.90
10129;DHT22;5104;50.720;7.044;2023-02-21T06:32:55;6.10;99.90
10129;DHT22;5104;50.720;7.044;2023-02-21T06:35:21;6.00;99.90
10129;DHT22;5104;50.720;7.044;2023-02-21T06:37:48;6.00;99.90
10129;DHT22;5104;50.720;7.044;2023-02-21T06:40:15;6.00;99.90
10129;DHT22;5104;50.720;7.044;2023-02-21T06:42:42;6.10;99.90
10129;DHT22;5104;50.720;7.044;2023-02-21T06:45:12;6.20;99.90
10129;DHT22;5104;50.720;7.044;2023-02-21T06:47:40;6.30;99.90
10129;DHT22;5104;50.720;7.044;2023-02-21T06:50:07;6.40;99.90
10129;DHT22;5104;50.720;7.044;2023-02-21T06:52:34;6.40;99.90
10129;DHT22;5104;50.720;7.044;2023-02-21T06:55:01;6.50;99.90
10129;DHT22;5104;50.720;7.044;2023-02-21T06:57:28;6.60;99.90
10129;DHT22;5104;50.720;7.044;2023-02-21T06:59:55;6.70;99.90
10129;DHT22;5104;50.720;7.044;2023-02-21T07:02:22;6.80;99.90
10129;DHT22;5104;50.720;7.044;2023-02-21T07:04:51;6.80;99.90
10129;DHT22;5104;50.720;7.044;2023-02-21T07:07:17;6.90;99.90
10129;DHT22;5104;50.720;7.044;2023-02-21T07:09:44;6.90;93.00
10129;DHT22;5104;50.720;7.044;2023-02-21T07:12:11;7.00;23.90
10129;DHT22;5104;50.720;7.044;2023-02-21T07:14:38;7.10;1.00
10129;DHT22;5104;50.720;7.044;2023-02-21T07:17:05;7.10;1.00
10129;DHT22;5104;50.720;7.044;2023-02-21T07:19:32;7.20;99.90
10129;DHT22;5104;50.720;7.044;2023-02-21T07:22:01;7.30;1.30
10129;DHT22;5104;50.720;7.044;2023-02-21T07:24:28;7.30;1.00
10129;DHT22;5104;50.720;7.044;2023-02-21T07:26:55;7.30;1.00
10129;DHT22;5104;50.720;7.044;2023-02-21T07:29:23;7.40;1.00
10129;DHT22;5104;50.720;7.044;2023-02-21T07:31:50;7.40;1.00
10129;DHT22;5104;50.720;7.044;2023-02-21T07:34:17;7.50;1.00
10129;DHT22;5104;50.720;7.044;2023-02-21T07:36:44;7.50;99.90
10129;DHT22;5104;50.720;7.044;2023-02-21T07:39:13;7.60;99.90
10129;DHT22;5104;50.720;7.044;2023-02-21T07:41:40;7.60;58.10
10129;DHT22;5104;50.720;7.044;2023-02-21T07:44:07;7.60;1.00
10129;DHT22;5104;50.720;7.044;2023-02-21T07:46:34;7.70;99.90
10129;DHT22;5104;50.720;7.044;2023-02-21T07:49:01;7.90;1.00
10129;DHT22;5104;50.720;7.044;2023-02-21T07:51:28;7.90;1.00
10129;DHT22;5104;50.720;7.044;2023-02-21T07:53:55;7.90;1.00
10129;DHT22;5104;50.720;7.044;2023-02-21T07:56:24;7.90;1.00
10129;DHT22;5104;50.720;7.044;2023-02-21T07:58:51;8.10;99.90
10129;DHT22;5104;50.720;7.044;2023-02-21T08:01:22;8.10;1.00
10129;DHT22;5104;50.720;7.044;2023-02-21T08:03:49;8.20;99.90
10129;DHT22;5104;50.720;7.044;2023-02-21T08:06:16;8.20;51.00
10129;DHT22;5104;50.720;7.044;2023-02-21T08:08:43;8.30;47.50
10129;DHT22;5104;50.720;7.044;2023-02-21T08:11:10;8.40;1.00
10129;DHT22;5104;50.720;7.044;2023-02-21T08:13:39;8.40;1.00
10129;DHT22;5104;50.720;7.044;2023-02-21T08:16:06;8.50;1.00
10129;DHT22;5104;50.720;7.044;2023-02-21T08:18:33;8.50;99.90
10129;DHT22;5104;50.720;7.044;2023-02-21T08:21:00;8.60;1.00
10129;DHT22;5104;50.720;7.044;2023-02-21T08:23:27;8.60;1.00
10129;DHT22;5104;50.720;7.044;2023-02-21T08:25:53;8.70;1.00
10129;DHT22;5104;50.720;7.044;2023-02-21T08:28:20;8.80;99.90
10129;DHT22;5104;50.720;7.044;2023-02-21T08:30:49;9.00;1.00
10129;DHT22;5104;50.720;7.044;2023-02-21T08:33:16;9.20;1.00
10129;DHT22;5104;50.720;7.044;2023-02-21T08:35:42;9.40;1.00
10129;DHT22;5104;50.720;7.044;2023-02-21T08:38:10;9.40;99.90
10129;DHT22;5104;50.720;7.044;2023-02-21T08:40:37;9.40;18.60
10129;DHT22;5104;50.720;7.044;2023-02-21T08:43:03;9.30;99.90
10129;DHT22;5104;50.720;7.044;2023-02-21T08:45:31;9.30;99.90
10129;DHT22;5104;50.720;7.044;2023-02-21T08:47:59;9.40;1.00
10129;DHT22;5104;50.720;7.044;2023-02-21T08:50:27;9.30;1.00
10129;DHT22;5104;50.720;7.044;2023-02-21T08:52:55;9.20;1.00
10129;DHT22;5104;50.720;7.044;2023-02-21T08:55:22;9.20;1.00
10129;DHT22;5104;50.720;7.044;2023-02-21T08:57:51;9.40;1.00
10129;DHT22;5104;50.720;7.044;2023-02-21T09:00:20;9.60;87.50
10129;DHT22;5104;50.720;7.044;2023-02-21T09:02:48;9.50;99.90
10129;DHT22;5104;50.720;7.044;2023-02-21T09:05:19;9.80;99.90
10129;DHT22;5104;50.720;7.044;2023-02-21T09:07:48;9.60;99.90
10129;DHT22;5104;50.720;7.044;2023-02-21T09:10:16;9.60;1.00
10129;DHT22;5104;50.720;7.044;2023-02-21T09:12:43;9.90;99.90
10129;DHT22;5104;50.720;7.044;2023-02-21T09:15:13;10.20;99.90
10129;DHT22;5104;50.720;7.044;2023-02-21T09:17:40;10.50;1.00
10129;DHT22;5104;50.720;7.044;2023-02-21T09:20:09;10.70;99.90
10129;DHT22;5104;50.720;7.044;2023-02-21T09:22:38;10.80;99.90
10129;DHT22;5104;50.720;7.044;2023-02-21T09:25:05;10.80;99.90
10129;DHT22;5104;50.720;7.044;2023-02-21T09:27:34;10.90;99.90
10129;DHT22;5104;50.720;7.044;2023-02-21T09:30:06;11.00;99.90
10129;DHT22;5104;50.720;7.044;2023-02-21T09:32:33;11.40;99.90
10129;DHT22;5104;50.720;7.044;2023-02-21T09:35:01;11.60;5.50
10129;DHT22;5104;50.720;7.044;2023-02-21T09:37:28;11.80;1.00
10129;DHT22;5104;50.720;7.044;2023-02-21T09:39:58;11.50;1.00
10129;DHT22;5104;50.720;7.044;2023-02-21T09:42:28;11.00;99.90
10129;DHT22;5104;50.720;7.044;2023-02-21T09:44:56;11.10;1.00
10129;DHT22;5104;50.720;7.044;2023-02-21T09:47:27;11.40;72.70
10129;DHT22;5104;50.720;7.044;2023-02-21T09:50:00;11.50;83.40
10129;DHT22;5104;50.720;7.044;2023-02-21T09:52:32;11.80;1.00
10129;DHT22;5104;50.720;7.044;2023-02-21T09:55:04;11.50;1.00
10129;DHT22;5104;50.720;7.044;2023-02-21T09:57:33;11.40;99.90
10129;DHT22;5104;50.720;7.044;2023-02-21T10:00:00;11.50;1.00
10129;DHT22;5104;50.720;7.044;2023-02-21T10:02:41;11.40;7.30
10129;DHT22;5104;50.720;7.044;2023-02-21T10:05:20;11.30;99.90
10129;DHT22;5104;50.720;7.044;2023-02-21T10:07:57;11.20;92.90
10129;DHT22;5104;50.720;7.044;2023-02-21T10:10:31;11.10;99.90
10129;DHT22;5104;50.720;7.044;2023-02-21T10:13:06;11.20;99.90
10129;DHT22;5104;50.720;7.044;2023-02-21T10:15:40;11.30;99.90
10129;DHT22;5104;50.720;7.044;2023-02-21T10:18:18;11.30;99.90
10129;DHT22;5104;50.720;7.044;2023-02-21T10:20:51;11.40;99.90
10129;DHT22;5104;50.720;7.044;2023-02-21T10:23:22;11.60;99.90
10129;DHT22;5104;50.720;7.044;2023-02-21T10:25:55;11.70;1.00
10129;DHT22;5104;50.720;7.044;2023-02-21T10:28:24;11.50;50.00
10129;DHT22;5104;50.720;7.044;2023-02-21T10:30:54;11.30;99.90
10129;DHT22;5104;50.720;7.044;2023-02-21T10:33:22;11.20;99.90
10129;DHT22;5104;50.720;7.044;2023-02-21T10:35:49;10.90;1.00
10129;DHT22;5104;50.720;7.044;2023-02-21T10:38:22;10.90;1.00
10129;DHT22;5104;50.720;7.044;2023-02-21T10:40:53;11.00;1.00
10129;DHT22;5104;50.720;7.044;2023-02-21T10:43:25;11.10;1.00
10129;DHT22;5104;50.720;7.044;2023-02-21T10:45:58;11.40;99.90
10129;DHT22;5104;50.720;7.044;2023-02-21T10:48:29;11.40;99.90
10129;DHT22;5104;50.720;7.044;2023-02-21T10:51:07;11.60;87.60
10129;DHT22;5104;50.720;7.044;2023-02-21T10:53:36;11.50;99.90
10129;DHT22;5104;50.720;7.044;2023-02-21T10:56:23;11.60;17.80
10129;DHT22;5104;50.720;7.044;2023-02-21T10:58:53;11.70;28.20
10129;DHT22;5104;50.720;7.044;2023-02-21T11:01:30;11.60;99.90
10129;DHT22;5104;50.720;7.044;2023-02-21T11:03:59;11.70;99.90
10129;DHT22;5104;50.720;7.044;2023-02-21T11:06:34;11.70;99.90
10129;DHT22;5104;50.720;7.044;2023-02-21T11:09:22;11.50;99.90
10129;DHT22;5104;50.720;7.044;2023-02-21T11:11:59;11.60;99.90
10129;DHT22;5104;50.720;7.044;2023-02-21T11:14:28;11.80;3.40
10129;DHT22;5104;50.720;7.044;2023-02-21T11:17:16;11.90;1.00
10129;DHT22;5104;50.720;7.044;2023-02-21T11:19:46;12.10;1.00
10129;DHT22;5104;50.720;7.044;2023-02-21T11:22:14;12.00;1.00
10129;DHT22;5104;50.720;7.044;2023-02-21T11:24:51;12.00;1.00
10129;DHT22;5104;50.720;7.044;2023-02-21T11:27:20;12.20;1.00
10129;DHT22;5104;50.720;7.044;2023-02-21T11:29:49;12.20;1.00
10129;DHT22;5104;50.720;7.044;2023-02-21T11:32:25;12.10;1.00
10129;DHT22;5104;50.720;7.044;2023-02-21T11:35:04;12.00;1.00
10129;DHT22;5104;50.720;7.044;2023-02-21T11:37:32;12.20;1.00
10129;DHT22;5104;50.720;7.044;2023-02-21T11:40:00;12.30;1.00
10129;DHT22;5104;50.720;7.044;2023-02-21T11:42:33;12.20;1.00
10129;DHT22;5104;50.720;7.044;2023-02-21T11:45:11;12.20;1.00
10129;DHT22;5104;50.720;7.044;2023-02-21T11:47:44;12.20;1.00
10129;DHT22;5104;50.720;7.044;2023-02-21T11:50:18;12.30;1.00
10129;DHT22;5104;50.720;7.044;2023-02-21T11:52:51;12.40;1.00
10129;DHT22;5104;50.720;7.044;2023-02-21T11:55:23;12.40;1.00
10129;DHT22;5104;50.720;7.044;2023-02-21T11:57:59;12.50;1.00
10129;DHT22;5104;50.720;7.044;2023-02-21T12:00:32;12.60;1.00
10129;DHT22;5104;50.720;7.044;2023-02-21T12:03:37;12.70;1.00
10129;DHT22;5104;50.720;7.044;2023-02-21T12:06:11;12.80;1.00
10129;DHT22;5104;50.720;7.044;2023-02-21T12:08:48;12.90;99.90
10129;DHT22;5104;50.720;7.044;2023-02-21T12:11:37;12.90;99.90
10129;DHT22;5104;50.720;7.044;2023-02-21T12:14:21;12.90;99.90
10129;DHT22;5104;50.720;7.044;2023-02-21T12:17:01;12.90;99.90
10129;DHT22;5104;50.720;7.044;2023-02-21T12:19:43;13.00;99.90
10129;DHT22;5104;50.720;7.044;2023-02-21T12:22:21;13.10;99.90
10129;DHT22;5104;50.720;7.044;2023-02-21T12:25:05;13.10;99.90
10129;DHT22;5104;50.720;7.044;2023-02-21T12:27:41;13.20;99.90
10129;DHT22;5104;50.720;7.044;2023-02-21T12:30:40;13.20;99.90
10129;DHT22;5104;50.720;7.044;2023-02-21T12:33:23;13.20;99.90
10129;DHT22;5104;50.720;7.044;2023-02-21T12:36:04;13.20;99.90
10129;DHT22;5104;50.720;7.044;2023-02-21T12:38:47;13.20;99.90
10129;DHT22;5104;50.720;7.044;2023-02-21T12:41:37;13.20;99.90
10129;DHT22;5104;50.720;7.044;2023-02-21T12:44:11;13.10;99.90
10129;DHT22;5104;50.720;7.044;2023-02-21T12:46:46;13.10;99.90
10129;DHT22;5104;50.720;7.044;2023-02-21T12:49:19;13.20;99.90
10129;DHT22;5104;50.720;7.044;2023-02-21T12:51:51;13.20;99.90
10129;DHT22;5104;50.720;7.044;2023-02-21T12:54:23;13.20;99.90
10129;DHT22;5104;50.720;7.044;2023-02-21T12:56:56;13.20;99.90
10129;DHT22;5104;50.720;7.044;2023-02-21T12:59:32;13.20;99.90
10129;DHT22;5104;50.720;7.044;2023-02-21T13:02:17;13.30;99.90
10129;DHT22;5104;50.720;7.044;2023-02-21T13:04:52;13.40;99.90
10129;DHT22;5104;50.720;7.044;2023-02-21T13:07:23;13.40;99.90
10129;DHT22;5104;50.720;7.044;2023-02-21T13:09:55;13.40;99.90
10129;DHT22;5104;50.720;7.044;2023-02-21T13:12:29;13.50;99.90
10129;DHT22;5104;50.720;7.044;2023-02-21T13:15:01;13.60;99.90
10129;DHT22;5104;50.720;7.044;2023-02-21T13:17:31;13.70;99.90
10129;DHT22;5104;50.720;7.044;2023-02-21T13:20:02;13.70;99.90
10129;DHT22;5104;50.720;7.044;2023-02-21T13:26:04;13.70;99.90
10129;DHT22;5104;50.720;7.044;2023-02-21T13:28:36;13.80;99.90
10129;DHT22;5104;50.720;7.044;2023-02-21T13:31:05;13.90;99.90
10129;DHT22;5104;50.720;7.044;2023-02-21T13:33:39;13.90;99.90
10129;DHT22;5104;50.720;7.044;2023-02-21T13:36:21;13.90;99.90
10129;DHT22;5104;50.720;7.044;2023-02-21T13:39:01;13.90;99.90
10129;DHT22;5104;50.720;7.044;2023-02-21T13:41:34;13.90;99.90
10129;DHT22;5104;50.720;7.044;2023-02-21T13:44:06;13.70;99.90
10129;DHT22;5104;50.720;7.044;2023-02-21T13:47:06;13.70;99.90
10129;DHT22;5104;50.720;7.044;2023-02-21T13:49:50;13.60;99.90
10129;DHT22;5104;50.720;7.044;2023-02-21T13:52:36;13.70;99.90
10129;DHT22;5104;50.720;7.044;2023-02-21T13:55:26;13.70;99.90
10129;DHT22;5104;50.720;7.044;2023-02-21T14:01:41;13.40;99.90
10129;DHT22;5104;50.720;7.044;2023-02-21T14:07:48;13.40;1.00
10129;DHT22;5104;50.720;7.044;2023-02-21T14:10:24;13.40;1.00
10129;DHT22;5104;50.720;7.044;2023-02-21T14:12:57;13.40;1.00
10129;DHT22;5104;50.720;7.044;2023-02-21T14:15:40;13.40;1.00
10129;DHT22;5104;50.720;7.044;2023-02-21T14:18:15;13.50;1.00
10129;DHT22;5104;50.720;7.044;2023-02-21T14:20:47;13.40;1.00
10129;DHT22;5104;50.720;7.044;2023-02-21T14:23:17;13.40;1.00
10129;DHT22;5104;50.720;7.044;2023-02-21T14:25:57;13.50;1.00
10129;DHT22;5104;50.720;7.044;2023-02-21T14:28:59;13.60;1.00
10129;DHT22;5104;50.720;7.044;2023-02-21T14:31:52;13.60;99.90
10129;DHT22;5104;50.720;7.044;2023-02-21T14:34:23;13.60;1.00
10129;DHT22;5104;50.720;7.044;2023-02-21T14:36:52;13.60;99.90
10129;DHT22;5104;50.720;7.044;2023-02-21T14:39:29;13.50;99.90
10129;DHT22;5104;50.720;7.044;2023-02-21T14:48:05;13.40;1.00
10129;DHT22;5104;50.720;7.044;2023-02-21T14:50:37;13.50;1.00
10129;DHT22;5104;50.720;7.044;2023-02-21T14:53:30;13.50;1.00
10129;DHT22;5104;50.720;7.044;2023-02-21T14:56:26;13.50;1.00
10129;DHT22;5104;50.720;7.044;2023-02-21T14:59:36;13.40;1.00
10129;DHT22;5104;50.720;7.044;2023-02-21T15:02:16;13.30;1.00
10129;DHT22;5104;50.720;7.044;2023-02-21T15:04:50;13.20;1.00
10129;DHT22;5104;50.720;7.044;2023-02-21T15:07:25;13.20;1.00
10129;DHT22;5104;50.720;7.044;2023-02-21T15:10:13;13.20;1.00
10129;DHT22;5104;50.720;7.044;2023-02-21T15:12:47;13.20;1.00
10129;DHT22;5104;50.720;7.044;2023-02-21T15:15:17;13.20;1.00
10129;DHT22;5104;50.720;7.044;2023-02-21T15:17:54;13.20;13.30
10129;DHT22;5104;50.720;7.044;2023-02-21T15:20:22;13.10;1.00
10129;DHT22;5104;50.720;7.044;2023-02-21T15:22:55;13.10;28.90
10129;DHT22;5104;50.720;7.044;2023-02-21T15:25:23;13.10;99.90
10129;DHT22;5104;50.720;7.044;2023-02-21T15:28:00;13.10;99.90
10129;DHT22;5104;50.720;7.044;2023-02-21T15:30:36;13.10;91.80
10129;DHT22;5104;50.720;7.044;2023-02-21T15:33:17;13.20;36.40
10129;DHT22;5104;50.720;7.044;2023-02-21T15:35:49;13.20;20.00
10129;DHT22;5104;50.720;7.044;2023-02-21T15:38:21;13.20;1.00
10129;DHT22;5104;50.720;7.044;2023-02-21T15:40:49;13.20;35.60
10129;DHT22;5104;50.720;7.044;2023-02-21T15:43:29;13.20;1.00
10129;DHT22;5104;50.720;7.044;2023-02-21T15:45:59;13.20;1.00
10129;DHT22;5104;50.720;7.044;2023-02-21T15:48:26;13.20;1.00
10129;DHT22;5104;50.720;7.044;2023-02-21T15:50:54;13.20;1.00
10129;DHT22;5104;50.720;7.044;2023-02-21T15:53:25;13.20;1.00
10129;DHT22;5104;50.720;7.044;2023-02-21T15:55:53;13.20;1.00
10129;DHT22;5104;50.720;7.044;2023-02-21T15:58:23;13.30;1.00
10129;DHT22;5104;50.720;7.044;2023-02-21T16:01:03;13.20;1.00
10129;DHT22;5104;50.720;7.044;2023-02-21T16:03:34;13.10;13.00
10129;DHT22;5104;50.720;7.044;2023-02-21T16:06:18;13.00;99.90
10129;DHT22;5104;50.720;7.044;2023-02-21T16:08:58;12.80;99.90
10129;DHT22;5104;50.720;7.044;2023-02-21T16:11:41;12.70;99.90
10129;DHT22;5104;50.720;7.044;2023-02-21T16:14:19;12.60;1.00
10129;DHT22;5104;50.720;7.044;2023-02-21T16:16:49;12.50;1.00
10129;DHT22;5104;50.720;7.044;2023-02-21T16:19:20;12.40;1.00
10129;DHT22;5104;50.720;7.044;2023-02-21T16:21:47;12.30;1.00
10129;DHT22;5104;50.720;7.044;2023-02-21T16:24:30;12.30;43.50
10129;DHT22;5104;50.720;7.044;2023-02-21T16:27:05;12.20;99.90
10129;DHT22;5104;50.720;7.044;2023-02-21T16:29:33;12.00;99.90
10129;DHT22;5104;50.720;7.044;2023-02-21T16:32:01;11.90;1.00
10129;DHT22;5104;50.720;7.044;2023-02-21T16:34:30;11.80;1.00
10129;DHT22;5104;50.720;7.044;2023-02-21T16:37:03;11.70;1.00
10129;DHT22;5104;50.720;7.044;2023-02-21T16:39:30;11.60;99.90
10129;DHT22;5104;50.720;7.044;2023-02-21T16:41:57;11.50;99.90
10129;DHT22;5104;50.720;7.044;2023-02-21T16:44:24;11.30;1.00
10129;DHT22;5104;50.720;7.044;2023-02-21T16:46:53;11.20;1.00
10129;DHT22;5104;50.720;7.044;2023-02-21T16:49:20;11.10;1.00
10129;DHT22;5104;50.720;7.044;2023-02-21T16:51:47;11.00;99.90
10129;DHT22;5104;50.720;7.044;2023-02-21T16:54:14;10.90;1.00
10129;DHT22;5104;50.720;7.044;2023-02-21T16:56:44;10.70;1.00
10129;DHT22;5104;50.720;7.044;2023-02-21T16:59:14;10.60;1.00
10129;DHT22;5104;50.720;7.044;2023-02-21T17:01:41;10.50;95.90
10129;DHT22;5104;50.720;7.044;2023-02-21T17:04:14;10.40;1.00
10129;DHT22;5104;50.720;7.044;2023-02-21T17:06:41;10.30;1.00
10129;DHT22;5104;50.720;7.044;2023-02-21T17:09:18;10.30;7.70
10129;DHT22;5104;50.720;7.044;2023-02-21T17:11:45;10.20;99.90
10129;DHT22;5104;50.720;7.044;2023-02-21T17:14:13;10.10;99.90